Rincon, GA (31326)

10:00 AM EDT on August 24, 2016 (GMT -0400)
Oxford Subdivision | | Change Station

Elev 66 ft 32.29 °N, 81.23 °W | Updated 37 seconds ago

Partly Cloudy
Partly Cloudy
88.5 °F
Feels Like 103 °F
N
0.0
Wind Variable Wind from SSE

Today
High -- | Low -- °F
--% Chance of Precip.
Yesterday
High -- | Low -- °F
Precip. -- in
Pressure 30.25 in
Visibility 10.0 miles
Clouds Few 2500 ft
Few 8000 ft
Few 25000 ft
Heat Index 103 °F
Dew Point 78 °F
Humidity 72%
Rainfall 0.00 in
Snow Depth Not available.
6:55 AM 7:58 PM
Waning Gibbous, 57% visible
METAR KSAV 241353Z 06008KT 10SM FEW025 FEW080 FEW250 29/21 A3024 RMK AO2 SLP241 T02940211
Pressure 30.25 in
Visibility 10.0 miles
Clouds Few 2500 ft
Few 8000 ft
Few 25000 ft
Heat Index 103 °F
Dew Point 78 °F
Humidity 72%
Rainfall 0.00 in
Snow Depth Not available.
6:55 AM 7:58 PM
Waning Gibbous, 57% visible
METAR KSAV 241353Z 06008KT 10SM FEW025 FEW080 FEW250 29/21 A3024 RMK AO2 SLP241 T02940211

10-Day Weather Forecast

Almanac

Astronomy

Aug. 24, 2016 Rise Set
Actual Time
Civil Twilight
Nautical Twilight
Astronomical Twilight
Moon
Length of Visible Light
Length of Day
Tomorrow will be .
, % of the Moon is Illuminated

Today's Extremes

State Highs State Lows

Community

WunderPhotos

Upload Photos

1,934,598 photos uploaded!

WunderBlog® & News

Nearby

Air Quality

  Air Quality AQ Index Pollutant
Not available.

Snow Depth

Station Depth Elevation

Earthquake Activity

City Distance Mag. Time & Date
Minimum magnitude displayed is 2.5.

Coastal Water Temperatures

Place Temperature

Stations

Nearby Weather Stations

Station Location Temp. Windchill Dew Point Humidity Wind Precip. Elev Updated Type
                   

Watches & Warnings

There are currently no watches in effect.